createdAt,value
2019-01-11T00:00:26.654Z,3.20
2019-01-11T00:02:31.310Z,3.07
2019-01-11T00:04:36.343Z,3.20
2019-01-11T00:06:41.600Z,2.60
2019-01-11T00:08:46.035Z,2.30
2019-01-11T00:10:50.777Z,2.90
2019-01-11T00:12:56.072Z,2.63
2019-01-11T00:15:00.575Z,2.30
2019-01-11T00:17:07.739Z,3.20
2019-01-11T00:19:12.444Z,2.80
2019-01-11T00:21:17.732Z,2.70
2019-01-11T00:23:22.676Z,2.80
2019-01-11T00:25:27.648Z,2.53
2019-01-11T00:27:32.085Z,2.60
2019-01-11T00:29:37.384Z,2.60
2019-01-11T00:31:41.908Z,2.80
2019-01-11T00:33:49.077Z,3.50
2019-01-11T00:35:53.944Z,3.27
2019-01-11T00:37:59.033Z,2.83
2019-01-11T00:40:05.833Z,4.50
2019-01-11T00:42:10.353Z,4.20
2019-01-11T00:44:14.795Z,3.80
2019-01-11T00:46:19.198Z,4.00
2019-01-11T00:48:27.545Z,4.33
2019-01-11T00:50:38.877Z,5.37
2019-01-11T00:52:44.074Z,4.90
2019-01-11T00:54:48.888Z,5.10
2019-01-11T00:56:53.263Z,4.00
2019-01-11T00:58:58.063Z,4.53
2019-01-11T01:01:02.618Z,3.73
2019-01-11T01:03:08.335Z,4.80
2019-01-11T01:05:12.942Z,4.80
2019-01-11T01:07:17.791Z,4.03
2019-01-11T01:09:24.579Z,4.80
2019-01-11T01:11:33.328Z,4.03
2019-01-11T01:13:39.574Z,5.90
2019-01-11T01:15:45.162Z,4.80
2019-01-11T01:17:50.831Z,5.80
2019-01-11T01:20:01.997Z,4.03
2019-01-11T01:22:06.523Z,7.23
2019-01-11T01:24:12.800Z,3.57
2019-01-11T01:26:17.233Z,4.17
2019-01-11T01:28:23.069Z,4.10
2019-01-11T01:30:28.788Z,4.50
2019-01-11T01:32:33.999Z,4.13
2019-01-11T01:34:38.431Z,3.60
2019-01-11T01:36:43.263Z,4.60
2019-01-11T01:38:47.893Z,4.50
2019-01-11T01:40:52.404Z,4.30
2019-01-11T01:43:00.972Z,4.57
2019-01-11T01:45:13.446Z,4.00
2019-01-11T01:47:18.187Z,5.40
2019-01-11T01:49:26.493Z,4.53
2019-01-11T01:51:29.556Z,5.47
2019-01-11T01:53:34.454Z,4.90
2019-01-11T01:55:39.273Z,5.73
2019-01-11T01:57:43.768Z,5.20
2019-01-11T01:59:51.011Z,5.67
2019-01-11T02:01:55.436Z,6.57
2019-01-11T02:04:00.625Z,6.17
2019-01-11T02:06:05.190Z,5.53
2019-01-11T02:08:13.715Z,6.17
2019-01-11T02:10:18.453Z,6.67
2019-01-11T02:12:26.324Z,6.80
2019-01-11T02:14:30.744Z,6.70
2019-01-11T02:16:35.511Z,7.30
2019-01-11T02:18:42.001Z,6.60
2019-01-11T02:20:46.839Z,6.00
2019-01-11T02:22:51.622Z,6.30
2019-01-11T02:24:56.121Z,6.10
2019-01-11T02:27:00.611Z,5.90
2019-01-11T02:29:05.401Z,6.33
2019-01-11T02:31:10.252Z,8.20
2019-01-11T02:33:14.734Z,6.80
2019-01-11T02:35:19.156Z,6.90
2019-01-11T02:37:23.607Z,6.83
2019-01-11T02:39:28.564Z,6.23
2019-01-11T02:41:33.335Z,7.63
2019-01-11T02:43:37.723Z,7.60
2019-01-11T02:45:42.668Z,8.97
2019-01-11T02:47:47.986Z,8.10
2019-01-11T02:49:52.798Z,7.53
2019-01-11T02:51:57.508Z,6.73
2019-01-11T02:54:07.200Z,8.10
2019-01-11T02:56:11.574Z,7.97
2019-01-11T02:58:21.445Z,8.10
2019-01-11T03:00:31.195Z,7.77
2019-01-11T03:02:35.877Z,9.93
2019-01-11T03:04:43.802Z,8.40
2019-01-11T03:06:49.123Z,8.63
2019-01-11T03:08:53.909Z,7.60
2019-01-11T03:10:58.337Z,9.90
2019-01-11T03:13:04.427Z,8.50
2019-01-11T03:15:09.255Z,7.47
2019-01-11T03:17:13.715Z,10.00
2019-01-11T03:19:20.547Z,8.17
2019-01-11T03:21:24.950Z,8.50
2019-01-11T03:23:32.233Z,9.90
2019-01-11T03:25:40.231Z,8.13
2019-01-11T03:27:45.828Z,8.73
2019-01-11T03:29:50.431Z,9.47
2019-01-11T03:31:56.366Z,8.90
2019-01-11T03:34:00.928Z,9.67
2019-01-11T03:36:05.384Z,8.77
2019-01-11T03:38:09.962Z,8.90
2019-01-11T03:40:15.145Z,9.73
2019-01-11T03:42:22.369Z,10.23
2019-01-11T03:44:27.231Z,9.40
2019-01-11T03:46:31.786Z,8.80
2019-01-11T03:48:36.688Z,9.73
2019-01-11T03:50:41.158Z,11.00
2019-01-11T03:52:45.609Z,10.10
2019-01-11T03:54:52.743Z,10.10
2019-01-11T03:56:57.304Z,9.53
2019-01-11T03:59:04.045Z,11.50
2019-01-11T04:01:08.498Z,9.00
2019-01-11T04:03:12.955Z,9.30
2019-01-11T04:05:20.286Z,10.50
2019-01-11T04:07:25.018Z,9.30
2019-01-11T04:09:31.052Z,10.67
2019-01-11T04:11:36.984Z,10.23
2019-01-11T04:13:41.381Z,9.70
2019-01-11T04:15:46.156Z,10.00
2019-01-11T04:18:08.888Z,9.50
2019-01-11T04:20:16.318Z,10.13
2019-01-11T04:22:27.785Z,10.80
2019-01-11T04:24:40.919Z,9.33
2019-01-11T04:26:47.900Z,10.60
2019-01-11T04:28:52.327Z,10.67
2019-01-11T04:30:56.789Z,10.10
2019-01-11T04:33:05.053Z,10.23
2019-01-11T04:35:12.662Z,9.87
2019-01-11T04:37:18.664Z,9.60
2019-01-11T04:39:23.051Z,10.13
2019-01-11T04:41:27.564Z,9.40
2019-01-11T04:43:32.216Z,10.00
2019-01-11T04:45:36.816Z,11.50
2019-01-11T04:47:42.289Z,8.93
2019-01-11T04:49:46.786Z,9.77
2019-01-11T04:51:51.396Z,10.00
2019-01-11T04:53:57.591Z,10.50
2019-01-11T04:56:05.498Z,10.63
2019-01-11T04:58:09.955Z,11.20
2019-01-11T05:00:23.470Z,9.60
2019-01-11T05:02:28.306Z,9.10
2019-01-11T05:04:32.901Z,9.97
2019-01-11T05:06:37.639Z,11.80
2019-01-11T05:08:42.932Z,12.67
2019-01-11T05:10:49.635Z,12.87
2019-01-11T05:12:57.711Z,12.93
2019-01-11T05:15:02.656Z,13.30
2019-01-11T05:17:09.068Z,13.50
2019-01-11T05:19:13.637Z,13.03
2019-01-11T05:21:18.090Z,11.53
2019-01-11T05:23:22.770Z,11.67
2019-01-11T05:25:28.517Z,13.17
2019-01-11T05:27:32.958Z,12.83
2019-01-11T05:29:37.448Z,12.10
2019-01-11T05:31:42.062Z,11.80
2019-01-11T05:33:50.062Z,11.43
2019-01-11T05:35:54.516Z,10.47
2019-01-11T05:37:59.127Z,10.63
2019-01-11T05:40:04.864Z,11.23
2019-01-11T05:42:09.919Z,10.97
2019-01-11T05:44:17.449Z,11.57
2019-01-11T05:46:22.393Z,13.10
2019-01-11T05:48:26.829Z,10.37
2019-01-11T05:50:31.750Z,12.33
2019-01-11T05:52:36.400Z,9.97
2019-01-11T05:54:40.875Z,15.30
2019-01-11T05:56:48.813Z,12.23
2019-01-11T05:58:57.185Z,12.57
2019-01-11T06:01:02.177Z,11.43
2019-01-11T06:03:09.036Z,12.30
2019-01-11T06:05:13.109Z,13.10
2019-01-11T06:07:21.620Z,12.77
2019-01-11T06:09:27.915Z,13.27
2019-01-11T06:11:34.167Z,12.60
2019-01-11T06:13:39.204Z,11.23
2019-01-11T06:15:43.982Z,10.60
2019-01-11T06:17:48.791Z,12.13
2019-01-11T06:19:53.917Z,13.67
2019-01-11T06:21:58.675Z,14.13
2019-01-11T06:24:04.584Z,13.90
2019-01-11T06:26:09.265Z,14.67
2019-01-11T06:28:14.108Z,16.17
2019-01-11T06:30:21.757Z,16.43
2019-01-11T06:32:38.797Z,17.60
2019-01-11T06:34:44.999Z,15.90
2019-01-11T06:36:52.758Z,17.10
2019-01-11T06:38:59.179Z,11.53
2019-01-11T06:41:04.237Z,15.00
2019-01-11T06:43:09.115Z,16.03
2019-01-11T06:45:13.848Z,14.27
2019-01-11T06:47:18.536Z,15.90
2019-01-11T06:49:22.909Z,15.60
2019-01-11T06:51:30.485Z,13.70
2019-01-11T06:53:35.139Z,15.50
2019-01-11T06:55:40.350Z,16.27
2019-01-11T06:57:45.163Z,16.40
2019-01-11T06:59:54.035Z,16.40
2019-01-11T07:01:59.785Z,14.93
2019-01-11T07:04:04.217Z,14.70
2019-01-11T07:06:11.385Z,13.33
2019-01-11T07:08:16.054Z,14.63
2019-01-11T07:10:22.845Z,15.77
2019-01-11T07:12:27.060Z,14.67
2019-01-11T07:14:31.718Z,15.40
2019-01-11T07:16:36.856Z,14.67
2019-01-11T07:18:42.926Z,14.50
2019-01-11T07:20:47.281Z,13.53
2019-01-11T07:22:52.543Z,14.50
2019-01-11T07:25:00.351Z,14.10
2019-01-11T07:27:04.816Z,14.63
2019-01-11T07:29:09.632Z,15.00
2019-01-11T07:31:15.687Z,14.60
2019-01-11T07:33:21.672Z,13.20
2019-01-11T07:35:36.427Z,14.97
2019-01-11T07:37:41.002Z,14.17
2019-01-11T07:39:45.409Z,14.93
2019-01-11T07:41:50.156Z,13.23
2019-01-11T07:43:54.610Z,13.17
2019-01-11T07:46:02.010Z,15.40
2019-01-11T07:48:09.698Z,13.20
2019-01-11T07:50:16.868Z,12.90
2019-01-11T07:52:21.285Z,13.83
2019-01-11T07:54:25.711Z,14.00
2019-01-11T07:56:30.136Z,11.60
2019-01-11T07:58:36.340Z,11.87
2019-01-11T08:00:43.902Z,12.83
2019-01-11T08:02:48.355Z,10.97
2019-01-11T08:04:52.739Z,13.17
2019-01-11T08:06:57.244Z,14.07
2019-01-11T08:09:01.874Z,11.30
2019-01-11T08:11:06.698Z,12.63
2019-01-11T08:13:12.271Z,12.60
2019-01-11T08:15:19.045Z,13.10
2019-01-11T08:17:23.487Z,11.67
2019-01-11T08:19:27.800Z,11.40
2019-01-11T08:21:32.316Z,12.17
2019-01-11T08:23:37.174Z,12.77
2019-01-11T08:25:43.835Z,11.63
2019-01-11T08:27:48.479Z,13.00
2019-01-11T08:29:52.946Z,13.87
2019-01-11T08:31:57.495Z,13.00
2019-01-11T08:34:04.972Z,14.33
2019-01-11T08:36:09.331Z,11.57
2019-01-11T08:38:14.548Z,11.37
2019-01-11T08:40:18.974Z,12.30
2019-01-11T08:42:23.353Z,12.20
2019-01-11T08:44:28.479Z,12.37
2019-01-11T08:46:33.234Z,12.70
2019-01-11T08:48:38.026Z,8.80
2019-01-11T08:50:42.354Z,12.50
2019-01-11T08:52:46.903Z,13.20
2019-01-11T08:54:51.564Z,10.80
2019-01-11T08:56:56.013Z,12.57
2019-01-11T08:59:00.509Z,13.30
2019-01-11T09:01:05.325Z,12.50
2019-01-11T09:03:10.157Z,10.67
2019-01-11T09:05:14.630Z,12.90
2019-01-11T09:07:19.484Z,12.87
2019-01-11T09:09:24.466Z,11.93
2019-01-11T09:11:28.919Z,11.37
2019-01-11T09:13:35.654Z,14.83
2019-01-11T09:15:40.452Z,13.20
2019-01-11T09:18:02.262Z,12.90
2019-01-11T09:20:06.935Z,11.67
2019-01-11T09:22:11.351Z,11.03
2019-01-11T09:24:18.019Z,12.73
2019-01-11T09:26:24.390Z,11.30
2019-01-11T09:28:31.268Z,11.50
2019-01-11T09:30:35.707Z,12.80
2019-01-11T09:32:40.074Z,11.90
2019-01-11T09:34:44.493Z,13.00
2019-01-11T09:36:50.351Z,14.97
2019-01-11T09:38:56.691Z,12.07
2019-01-11T09:41:01.506Z,11.27
2019-01-11T09:43:06.057Z,13.70
2019-01-11T09:45:10.623Z,10.83
2019-01-11T09:47:15.103Z,12.57
2019-01-11T09:49:19.856Z,11.47
2019-01-11T09:51:26.085Z,11.50
2019-01-11T09:53:31.313Z,16.27
2019-01-11T09:55:35.770Z,11.07
2019-01-11T09:57:40.149Z,12.37
2019-01-11T09:59:45.452Z,13.60
2019-01-11T10:02:02.778Z,13.13
2019-01-11T10:04:08.834Z,12.87
2019-01-11T10:06:13.260Z,12.40
2019-01-11T10:08:27.611Z,16.50
2019-01-11T10:10:33.703Z,16.33
2019-01-11T10:12:38.122Z,13.90
2019-01-11T10:14:42.562Z,12.90
2019-01-11T10:16:47.149Z,14.20
2019-01-11T10:18:51.635Z,15.00
2019-01-11T10:20:59.718Z,13.27
2019-01-11T10:23:04.225Z,15.27
2019-01-11T10:25:11.906Z,14.73
2019-01-11T10:27:17.198Z,16.53
2019-01-11T10:29:21.565Z,13.80
2019-01-11T10:31:25.923Z,13.10
2019-01-11T10:33:35.972Z,15.67
2019-01-11T10:35:36.558Z,14.73
2019-01-11T10:37:41.363Z,13.67
2019-01-11T10:39:47.575Z,15.20
2019-01-11T10:41:52.042Z,13.50
2019-01-11T10:43:56.640Z,14.07
2019-01-11T10:46:03.431Z,13.77
2019-01-11T10:48:07.967Z,15.67
2019-01-11T10:50:14.545Z,13.13
2019-01-11T10:52:19.355Z,14.50
2019-01-11T10:54:42.444Z,14.90
2019-01-11T10:56:50.316Z,14.60
2019-01-11T10:58:55.478Z,15.17
2019-01-11T11:01:01.033Z,15.07
2019-01-11T11:03:07.937Z,15.13
2019-01-11T11:05:12.588Z,16.13
2019-01-11T11:07:17.433Z,15.63
2019-01-11T11:09:21.824Z,16.83
2019-01-11T11:11:27.305Z,14.60
2019-01-11T11:13:32.413Z,14.67
2019-01-11T11:15:38.359Z,16.40
2019-01-11T11:17:42.812Z,15.77
2019-01-11T11:19:47.136Z,16.00
2019-01-11T11:21:51.547Z,17.60
2019-01-11T11:23:56.085Z,16.27
2019-01-11T11:26:00.524Z,16.07
2019-01-11T11:28:04.896Z,19.17
2019-01-11T11:30:11.128Z,17.13
2019-01-11T11:32:17.558Z,14.83
2019-01-11T11:34:28.407Z,19.13
2019-01-11T11:36:33.279Z,19.87
2019-01-11T11:38:37.637Z,15.60
2019-01-11T11:40:43.056Z,15.90
2019-01-11T11:42:47.488Z,17.03
2019-01-11T11:44:51.944Z,16.37
2019-01-11T11:46:56.367Z,17.87
2019-01-11T11:49:00.817Z,18.27
2019-01-11T11:51:05.288Z,17.00
2019-01-11T11:53:09.702Z,19.30
2019-01-11T11:55:17.142Z,16.30
2019-01-11T11:57:21.659Z,14.63
2019-01-11T11:59:26.157Z,14.60
2019-01-11T12:01:33.491Z,16.90
2019-01-11T12:03:38.139Z,20.90
2019-01-11T12:05:44.062Z,16.20
2019-01-11T12:07:49.003Z,19.23
2019-01-11T12:09:54.224Z,13.97
2019-01-11T12:11:58.872Z,18.10
2019-01-11T12:14:03.311Z,15.80
2019-01-11T12:16:07.964Z,17.50
2019-01-11T12:18:12.648Z,17.57
2019-01-11T12:20:36.787Z,19.20
2019-01-11T12:22:41.145Z,15.77
2019-01-11T12:24:45.875Z,17.27
2019-01-11T12:26:50.262Z,15.97
2019-01-11T12:28:55.424Z,14.87
2019-01-11T12:31:00.149Z,17.60
2019-01-11T12:33:04.695Z,15.50
2019-01-11T12:35:09.119Z,15.57
2019-01-11T12:37:13.486Z,9.97
2019-01-11T12:39:17.865Z,16.57
2019-01-11T12:41:23.209Z,18.73
2019-01-11T12:43:27.596Z,19.17
2019-01-11T12:45:32.360Z,13.57
2019-01-11T12:47:36.743Z,16.30
2019-01-11T12:49:43.184Z,19.03
2019-01-11T12:51:53.868Z,15.77
2019-01-11T12:53:54.378Z,13.63
2019-01-11T12:55:59.012Z,16.83
2019-01-11T12:58:03.806Z,20.87
2019-01-11T13:00:15.404Z,17.87
2019-01-11T13:02:19.822Z,15.10
2019-01-11T13:04:24.681Z,12.37
2019-01-11T13:06:29.725Z,13.67
2019-01-11T13:08:35.295Z,20.20
2019-01-11T13:10:40.118Z,15.77
2019-01-11T13:12:44.609Z,11.63
2019-01-11T13:14:49.159Z,17.73
2019-01-11T13:16:53.622Z,14.17
2019-01-11T13:18:58.228Z,14.60
2019-01-11T13:21:03.039Z,13.50
2019-01-11T13:23:07.899Z,13.07
2019-01-11T13:25:13.847Z,15.40
2019-01-11T13:27:18.308Z,17.03
2019-01-11T13:29:22.934Z,14.77
2019-01-11T13:31:27.495Z,14.70
2019-01-11T13:33:31.989Z,14.53
2019-01-11T13:35:38.504Z,14.73
2019-01-11T13:37:42.927Z,14.43
2019-01-11T13:39:47.383Z,14.47
2019-01-11T13:41:51.979Z,15.27
2019-01-11T13:43:57.130Z,13.97
2019-01-11T13:46:01.978Z,9.20
2019-01-11T13:48:06.985Z,15.13
2019-01-11T13:50:17.622Z,14.73
2019-01-11T13:52:22.099Z,12.07
2019-01-11T13:54:28.224Z,8.27
2019-01-11T13:56:33.167Z,15.90
2019-01-11T13:58:38.135Z,13.77
2019-01-11T14:00:45.985Z,12.40
2019-01-11T14:02:50.670Z,12.97
2019-01-11T14:04:56.884Z,13.70
2019-01-11T14:07:01.345Z,13.67
2019-01-11T14:09:08.627Z,12.80
2019-01-11T14:11:15.902Z,13.67
2019-01-11T14:13:21.793Z,13.27
2019-01-11T14:15:26.180Z,11.23
2019-01-11T14:17:30.652Z,11.20
2019-01-11T14:19:35.096Z,10.57
2019-01-11T14:21:39.552Z,12.40
2019-01-11T14:23:44.007Z,11.73
2019-01-11T14:25:48.854Z,8.10
2019-01-11T14:27:53.263Z,12.00
2019-01-11T14:29:57.737Z,10.80
2019-01-11T14:32:02.156Z,10.10
2019-01-11T14:34:06.856Z,8.90
2019-01-11T14:36:11.377Z,9.40
2019-01-11T14:38:15.861Z,8.47
2019-01-11T14:40:20.428Z,7.53
2019-01-11T14:42:25.851Z,8.03
2019-01-11T14:44:30.659Z,8.80
2019-01-11T14:46:36.225Z,7.00
2019-01-11T14:48:40.630Z,7.97
2019-01-11T14:50:45.135Z,9.07
2019-01-11T14:52:49.580Z,5.80
2019-01-11T14:54:54.096Z,7.00
2019-01-11T14:56:58.605Z,8.40
2019-01-11T14:59:03.966Z,8.40
2019-01-11T15:01:11.969Z,8.30
2019-01-11T15:03:16.757Z,6.77
2019-01-11T15:05:24.082Z,7.00
2019-01-11T15:07:28.570Z,6.53
2019-01-11T15:09:33.083Z,7.07
2019-01-11T15:11:37.448Z,7.13
2019-01-11T15:13:41.930Z,6.40
2019-01-11T15:15:54.458Z,6.37
2019-01-11T15:18:01.138Z,5.60
2019-01-11T15:20:07.534Z,5.80
2019-01-11T15:22:12.724Z,6.27
2019-01-11T15:24:17.601Z,5.43
2019-01-11T15:26:22.144Z,5.33
2019-01-11T15:28:26.611Z,4.43
2019-01-11T15:30:32.569Z,5.10
2019-01-11T15:32:37.134Z,6.10
2019-01-11T15:34:41.990Z,5.20
2019-01-11T15:36:46.561Z,5.20
2019-01-11T15:38:50.986Z,6.37
2019-01-11T15:40:55.840Z,5.43
2019-01-11T15:43:01.651Z,4.60
2019-01-11T15:45:10.500Z,4.77
2019-01-11T15:47:19.308Z,4.60
2019-01-11T15:49:24.791Z,4.73
2019-01-11T15:51:31.086Z,4.87
2019-01-11T15:53:37.590Z,5.30
2019-01-11T15:55:45.262Z,5.60
2019-01-11T15:57:49.815Z,5.20
2019-01-11T16:00:02.135Z,5.40
2019-01-11T16:02:06.657Z,4.53
2019-01-11T16:04:12.599Z,5.30
2019-01-11T16:06:36.473Z,6.13
2019-01-11T16:09:23.896Z,6.03
2019-01-11T16:11:48.436Z,5.57
2019-01-11T16:14:19.878Z,5.13
2019-01-11T16:17:05.386Z,6.40
2019-01-11T16:21:57.062Z,5.13
2019-01-11T16:24:02.589Z,5.20
2019-01-11T16:26:11.156Z,5.00
2019-01-11T16:28:16.591Z,4.57
2019-01-11T16:30:21.080Z,5.00
2019-01-11T16:32:25.538Z,3.90
2019-01-11T16:34:32.751Z,4.80
2019-01-11T16:36:37.217Z,5.70
2019-01-11T16:38:43.295Z,4.50
2019-01-11T16:40:48.187Z,4.70
2019-01-11T16:42:53.792Z,4.40
2019-01-11T16:44:59.563Z,5.63
2019-01-11T16:47:04.957Z,3.60
2019-01-11T16:49:13.234Z,5.03
2019-01-11T16:51:20.077Z,4.50
2019-01-11T16:53:25.410Z,4.20
2019-01-11T16:55:30.136Z,4.23
2019-01-11T16:57:37.600Z,4.60
2019-01-11T16:59:42.282Z,5.80
2019-01-11T17:01:49.942Z,3.20
2019-01-11T17:03:56.341Z,4.80
2019-01-11T17:06:01.895Z,5.20
2019-01-11T17:08:10.165Z,3.40
2019-01-11T17:10:17.413Z,2.37
2019-01-11T17:12:28.645Z,5.67
2019-01-11T17:14:33.488Z,3.77
2019-01-11T17:16:37.823Z,3.60
2019-01-11T17:18:42.162Z,4.90
2019-01-11T17:20:48.752Z,6.07
2019-01-11T17:22:53.439Z,3.20
2019-01-11T17:25:01.514Z,4.37
2019-01-11T17:27:05.984Z,6.40
2019-01-11T17:29:11.429Z,5.60
2019-01-11T17:31:17.356Z,5.63
2019-01-11T17:33:22.217Z,4.57
2019-01-11T17:35:26.745Z,6.73
2019-01-11T17:37:31.372Z,6.67
2019-01-11T17:39:35.863Z,7.70
2019-01-11T17:41:40.325Z,7.97
2019-01-11T17:43:45.199Z,5.97
2019-01-11T17:45:50.652Z,6.30
2019-01-11T17:47:55.143Z,5.50
2019-01-11T17:50:01.215Z,4.83
2019-01-11T17:52:08.318Z,6.97
2019-01-11T17:54:13.257Z,7.07
2019-01-11T17:56:17.742Z,6.93
2019-01-11T17:58:24.557Z,7.30
2019-01-11T18:00:28.919Z,5.43
2019-01-11T18:02:33.847Z,6.47
2019-01-11T18:04:38.631Z,5.77
2019-01-11T18:06:43.425Z,5.80
2019-01-11T18:08:47.979Z,7.87
2019-01-11T18:10:52.488Z,3.73
2019-01-11T18:12:57.012Z,6.60
2019-01-11T18:15:01.636Z,6.20
2019-01-11T18:17:06.527Z,5.77
2019-01-11T18:19:11.305Z,6.13
2019-01-11T18:21:16.997Z,5.27
2019-01-11T18:23:21.777Z,6.53
2019-01-11T18:25:26.281Z,6.23
2019-01-11T18:27:33.661Z,5.90
2019-01-11T18:29:38.156Z,7.47
2019-01-11T18:31:47.066Z,5.73
2019-01-11T18:33:51.633Z,8.00
2019-01-11T18:35:58.835Z,7.37
2019-01-11T18:38:03.371Z,5.17
2019-01-11T18:40:16.700Z,6.87
2019-01-11T18:42:22.365Z,7.30
2019-01-11T18:44:27.238Z,7.23
2019-01-11T18:46:32.361Z,7.80
2019-01-11T18:48:38.415Z,8.37
2019-01-11T18:50:43.903Z,8.37
2019-01-11T18:52:51.430Z,7.13
2019-01-11T18:54:56.169Z,6.47
2019-01-11T18:57:00.682Z,7.97
2019-01-11T18:59:09.507Z,6.57
2019-01-11T19:01:14.259Z,7.20
2019-01-11T19:03:18.805Z,7.90
2019-01-11T19:05:23.321Z,6.13
2019-01-11T19:07:27.842Z,7.40
2019-01-11T19:09:37.451Z,6.73
2019-01-11T19:11:43.187Z,6.10
2019-01-11T19:13:47.766Z,7.37
2019-01-11T19:15:55.062Z,6.97
2019-01-11T19:17:59.590Z,8.03
2019-01-11T19:20:07.619Z,7.00
2019-01-11T19:22:15.145Z,8.03
2019-01-11T19:24:19.789Z,7.33
2019-01-11T19:26:27.071Z,6.40
2019-01-11T19:28:35.363Z,8.43
2019-01-11T19:30:40.239Z,6.50
2019-01-11T19:32:44.818Z,8.20
2019-01-11T19:34:49.871Z,7.10
2019-01-11T19:36:55.512Z,7.13
2019-01-11T19:39:02.394Z,7.27
2019-01-11T19:41:07.007Z,9.23
2019-01-11T19:43:11.741Z,8.13
2019-01-11T19:45:16.283Z,9.73
2019-01-11T19:47:21.005Z,9.23
2019-01-11T19:49:26.888Z,9.50
2019-01-11T19:51:32.008Z,9.00
2019-01-11T19:53:36.891Z,6.37
2019-01-11T19:55:46.662Z,7.83
2019-01-11T19:57:56.104Z,7.37
2019-01-11T20:00:03.269Z,9.03
2019-01-11T20:02:07.950Z,6.40
2019-01-11T20:04:14.354Z,7.73
2019-01-11T20:06:22.001Z,6.27
2019-01-11T20:08:26.908Z,8.47
2019-01-11T20:10:33.441Z,9.30
2019-01-11T20:12:39.822Z,8.93
2019-01-11T20:14:47.218Z,8.50
2019-01-11T20:16:56.054Z,8.63
2019-01-11T20:19:04.894Z,7.33
2019-01-11T20:21:11.489Z,7.07
2019-01-11T20:23:17.670Z,8.33
2019-01-11T20:25:24.064Z,8.00
2019-01-11T20:27:29.087Z,7.87
2019-01-11T20:29:37.881Z,9.37
2019-01-11T20:31:44.302Z,8.60
2019-01-11T20:33:51.074Z,7.90
2019-01-11T20:35:59.015Z,7.00
2019-01-11T20:38:06.961Z,6.93
2019-01-11T20:40:15.465Z,8.77
2019-01-11T20:42:21.141Z,7.60
2019-01-11T20:44:26.930Z,7.47
2019-01-11T20:46:33.787Z,7.30
2019-01-11T20:48:41.888Z,7.90
2019-01-11T20:50:50.730Z,8.53
2019-01-11T20:52:59.411Z,8.00
2019-01-11T20:55:05.432Z,6.00
2019-01-11T20:57:10.344Z,8.60
2019-01-11T20:59:21.277Z,8.70
2019-01-11T21:01:28.138Z,9.20
2019-01-11T21:03:35.235Z,7.80
2019-01-11T21:05:42.104Z,7.57
2019-01-11T21:07:47.014Z,8.40
2019-01-11T21:09:54.010Z,8.90
2019-01-11T21:12:01.017Z,7.00
2019-01-11T21:14:23.692Z,6.80
2019-01-11T21:16:28.978Z,7.93
2019-01-11T21:18:34.550Z,7.40
2019-01-11T21:20:39.551Z,9.00
2019-01-11T21:22:46.234Z,7.50
2019-01-11T21:24:59.996Z,7.40
2019-01-11T21:27:04.930Z,6.50
2019-01-11T21:29:11.820Z,9.10
2019-01-11T21:31:19.915Z,7.67
2019-01-11T21:33:26.958Z,6.87
2019-01-11T21:35:34.407Z,7.80
2019-01-11T21:37:41.141Z,6.90
2019-01-11T21:39:48.463Z,7.90
2019-01-11T21:41:53.850Z,7.03
2019-01-11T21:44:00.455Z,6.13
2019-01-11T21:46:05.363Z,8.17
2019-01-11T21:48:10.238Z,7.33
2019-01-11T21:50:16.870Z,8.40
2019-01-11T21:52:22.644Z,7.30
2019-01-11T21:54:30.841Z,6.50
2019-01-11T21:56:35.511Z,6.77
2019-01-11T21:58:40.720Z,7.33
2019-01-11T22:00:47.375Z,7.20
2019-01-11T22:02:52.399Z,6.43
2019-01-11T22:05:00.786Z,7.27
2019-01-11T22:07:05.359Z,7.60
2019-01-11T22:09:10.005Z,7.60
2019-01-11T22:11:14.774Z,5.60
2019-01-11T22:13:19.919Z,6.17
2019-01-11T22:15:24.576Z,5.30
2019-01-11T22:17:30.053Z,6.43
2019-01-11T22:19:34.716Z,7.73
2019-01-11T22:21:40.901Z,6.07
2019-01-11T22:23:45.521Z,6.60
2019-01-11T22:25:50.975Z,6.13
2019-01-11T22:27:55.439Z,6.87
2019-01-11T22:29:59.988Z,6.43
2019-01-11T22:32:04.924Z,7.40
2019-01-11T22:34:09.786Z,6.33
2019-01-11T22:36:20.185Z,6.63
2019-01-11T22:38:25.021Z,7.13
2019-01-11T22:40:29.499Z,7.17
2019-01-11T22:42:35.035Z,7.43
2019-01-11T22:44:40.934Z,7.97
2019-01-11T22:46:45.375Z,8.07
2019-01-11T22:48:50.000Z,6.40
2019-01-11T22:50:55.623Z,8.67
2019-01-11T22:53:00.900Z,8.47
2019-01-11T22:55:08.038Z,11.53
2019-01-11T22:57:13.590Z,8.63
2019-01-11T22:59:18.230Z,7.80
2019-01-11T23:01:52.703Z,7.30
2019-01-11T23:03:57.176Z,8.63
2019-01-11T23:06:09.155Z,10.37
2019-01-11T23:08:17.624Z,8.90
2019-01-11T23:10:52.931Z,9.20
2019-01-11T23:13:03.558Z,8.80
2019-01-11T23:15:12.535Z,8.40
2019-01-11T23:17:46.514Z,9.20
2019-01-11T23:19:51.421Z,8.50
2019-01-11T23:21:57.403Z,10.50
2019-01-11T23:24:01.959Z,8.80
2019-01-11T23:26:06.744Z,9.27
2019-01-11T23:28:15.283Z,8.90
2019-01-11T23:30:19.922Z,8.93
2019-01-11T23:32:28.628Z,6.97
2019-01-11T23:34:33.083Z,7.73
2019-01-11T23:36:39.718Z,5.30
2019-01-11T23:38:45.247Z,9.37
2019-01-11T23:40:50.514Z,9.53
2019-01-11T23:42:56.846Z,10.00
2019-01-11T23:45:01.832Z,9.87
2019-01-11T23:47:06.300Z,6.70
2019-01-11T23:49:10.755Z,9.40
2019-01-11T23:51:19.373Z,9.10
2019-01-11T23:53:30.673Z,9.13
2019-01-11T23:55:36.844Z,9.67
2019-01-11T23:57:43.130Z,10.00
2019-01-11T23:59:50.672Z,10.90
